sensor_id;sensor_type;location;lat;lon;timestamp;temperature;humidity
13713;DHT22;6928;50.546;7.120;2023-04-23T00:01:18;13.28;86.20
13713;DHT22;6928;50.546;7.120;2023-04-23T00:03:45;13.24;86.33
13713;DHT22;6928;50.546;7.120;2023-04-23T00:06:15;13.24;86.36
13713;DHT22;6928;50.546;7.120;2023-04-23T00:08:42;13.24;86.36
13713;DHT22;6928;50.546;7.120;2023-04-23T00:11:09;13.17;86.68
13713;DHT22;6928;50.546;7.120;2023-04-23T00:13:37;13.00;87.19
13713;DHT22;6928;50.546;7.120;2023-04-23T00:16:05;13.03;87.12
13713;DHT22;6928;50.546;7.120;2023-04-23T00:18:33;12.80;88.16
13713;DHT22;6928;50.546;7.120;2023-04-23T00:21:00;12.88;87.85
13713;DHT22;6928;50.546;7.120;2023-04-23T00:23:27;12.92;87.81
13713;DHT22;6928;50.546;7.120;2023-04-23T00:25:54;12.83;88.35
13713;DHT22;6928;50.546;7.120;2023-04-23T00:28:21;12.88;88.31
13713;DHT22;6928;50.546;7.120;2023-04-23T00:30:48;12.92;88.17
13713;DHT22;6928;50.546;7.120;2023-04-23T00:33:14;12.83;88.31
13713;DHT22;6928;50.546;7.120;2023-04-23T00:35:42;12.79;88.54
13713;DHT22;6928;50.546;7.120;2023-04-23T00:38:09;12.81;88.40
13713;DHT22;6928;50.546;7.120;2023-04-23T00:40:36;12.87;88.21
13713;DHT22;6928;50.546;7.120;2023-04-23T00:43:03;12.96;87.87
13713;DHT22;6928;50.546;7.120;2023-04-23T00:45:30;12.75;88.54
13713;DHT22;6928;50.546;7.120;2023-04-23T00:47:57;12.84;88.19
13713;DHT22;6928;50.546;7.120;2023-04-23T00:50:24;12.88;88.19
13713;DHT22;6928;50.546;7.120;2023-04-23T00:52:52;12.90;87.69
13713;DHT22;6928;50.546;7.120;2023-04-23T00:55:19;12.84;87.98
13713;DHT22;6928;50.546;7.120;2023-04-23T00:57:46;12.81;88.20
13713;DHT22;6928;50.546;7.120;2023-04-23T01:00:14;12.87;87.68
13713;DHT22;6928;50.546;7.120;2023-04-23T01:02:42;12.80;87.56
13713;DHT22;6928;50.546;7.120;2023-04-23T01:05:11;12.81;87.40
13713;DHT22;6928;50.546;7.120;2023-04-23T01:07:39;12.88;87.11
13713;DHT22;6928;50.546;7.120;2023-04-23T01:10:10;12.94;86.81
13713;DHT22;6928;50.546;7.120;2023-04-23T01:12:37;13.02;86.45
13713;DHT22;6928;50.546;7.120;2023-04-23T01:15:06;12.97;86.60
13713;DHT22;6928;50.546;7.120;2023-04-23T01:17:33;12.97;86.81
13713;DHT22;6928;50.546;7.120;2023-04-23T01:20:00;12.97;86.71
13713;DHT22;6928;50.546;7.120;2023-04-23T01:22:28;12.99;86.63
13713;DHT22;6928;50.546;7.120;2023-04-23T01:24:55;12.88;86.90
13713;DHT22;6928;50.546;7.120;2023-04-23T01:27:22;12.80;87.12
13713;DHT22;6928;50.546;7.120;2023-04-23T01:29:49;12.69;88.11
13713;DHT22;6928;50.546;7.120;2023-04-23T01:32:17;12.52;88.70
13713;DHT22;6928;50.546;7.120;2023-04-23T01:34:45;12.42;89.11
13713;DHT22;6928;50.546;7.120;2023-04-23T01:37:13;12.41;89.09
13713;DHT22;6928;50.546;7.120;2023-04-23T01:39:42;12.55;88.53
13713;DHT22;6928;50.546;7.120;2023-04-23T01:42:08;12.57;88.26
13713;DHT22;6928;50.546;7.120;2023-04-23T01:44:35;12.59;87.94
13713;DHT22;6928;50.546;7.120;2023-04-23T01:47:02;12.31;89.06
13713;DHT22;6928;50.546;7.120;2023-04-23T01:49:29;12.45;88.79
13713;DHT22;6928;50.546;7.120;2023-04-23T01:51:56;12.57;87.97
13713;DHT22;6928;50.546;7.120;2023-04-23T01:54:23;12.50;87.77
13713;DHT22;6928;50.546;7.120;2023-04-23T01:56:51;12.50;87.73
13713;DHT22;6928;50.546;7.120;2023-04-23T01:59:20;12.50;87.50
13713;DHT22;6928;50.546;7.120;2023-04-23T02:01:48;12.55;87.20
13713;DHT22;6928;50.546;7.120;2023-04-23T02:04:16;12.45;87.70
13713;DHT22;6928;50.546;7.120;2023-04-23T02:06:46;12.13;89.07
13713;DHT22;6928;50.546;7.120;2023-04-23T02:09:13;12.29;88.50
13713;DHT22;6928;50.546;7.120;2023-04-23T02:11:40;12.48;87.75
13713;DHT22;6928;50.546;7.120;2023-04-23T02:14:09;12.29;88.43
13713;DHT22;6928;50.546;7.120;2023-04-23T02:16:36;12.39;87.87
13713;DHT22;6928;50.546;7.120;2023-04-23T02:19:03;12.39;87.48
13713;DHT22;6928;50.546;7.120;2023-04-23T02:21:30;12.29;87.37
13713;DHT22;6928;50.546;7.120;2023-04-23T02:23:57;12.28;87.69
13713;DHT22;6928;50.546;7.120;2023-04-23T02:26:23;12.35;87.41
13713;DHT22;6928;50.546;7.120;2023-04-23T02:28:50;12.36;87.04
13713;DHT22;6928;50.546;7.120;2023-04-23T02:31:18;12.34;86.93
13713;DHT22;6928;50.546;7.120;2023-04-23T02:33:45;12.28;87.12
13713;DHT22;6928;50.546;7.120;2023-04-23T02:36:12;12.18;87.37
13713;DHT22;6928;50.546;7.120;2023-04-23T02:38:39;12.14;87.41
13713;DHT22;6928;50.546;7.120;2023-04-23T02:41:09;12.21;87.25
13713;DHT22;6928;50.546;7.120;2023-04-23T02:43:36;12.14;87.39
13713;DHT22;6928;50.546;7.120;2023-04-23T02:46:02;12.08;87.82
13713;DHT22;6928;50.546;7.120;2023-04-23T02:48:36;11.95;88.72
13713;DHT22;6928;50.546;7.120;2023-04-23T02:51:03;12.05;88.02
13713;DHT22;6928;50.546;7.120;2023-04-23T02:53:31;11.99;88.37
13713;DHT22;6928;50.546;7.120;2023-04-23T02:55:57;12.15;87.86
13713;DHT22;6928;50.546;7.120;2023-04-23T02:58:24;12.34;87.30
13713;DHT22;6928;50.546;7.120;2023-04-23T03:00:51;12.29;87.46
13713;DHT22;6928;50.546;7.120;2023-04-23T03:03:18;12.18;88.02
13713;DHT22;6928;50.546;7.120;2023-04-23T03:05:46;12.08;88.17
13713;DHT22;6928;50.546;7.120;2023-04-23T03:08:13;12.14;88.40
13713;DHT22;6928;50.546;7.120;2023-04-23T03:10:40;12.15;87.97
13713;DHT22;6928;50.546;7.120;2023-04-23T03:13:06;12.11;87.92
13713;DHT22;6928;50.546;7.120;2023-04-23T03:15:33;11.80;89.33
13713;DHT22;6928;50.546;7.120;2023-04-23T03:18:00;11.94;89.12
13713;DHT22;6928;50.546;7.120;2023-04-23T03:20:28;11.91;88.78
13713;DHT22;6928;50.546;7.120;2023-04-23T03:22:56;11.98;88.83
13713;DHT22;6928;50.546;7.120;2023-04-23T03:25:23;11.76;90.01
13713;DHT22;6928;50.546;7.120;2023-04-23T03:27:50;11.84;89.38
13713;DHT22;6928;50.546;7.120;2023-04-23T03:30:18;11.87;88.89
13713;DHT22;6928;50.546;7.120;2023-04-23T03:32:44;11.70;89.61
13713;DHT22;6928;50.546;7.120;2023-04-23T03:35:11;11.94;89.03
13713;DHT22;6928;50.546;7.120;2023-04-23T03:37:38;11.97;88.64
13713;DHT22;6928;50.546;7.120;2023-04-23T03:40:08;11.86;88.87
13713;DHT22;6928;50.546;7.120;2023-04-23T03:42:35;11.70;88.67
13713;DHT22;6928;50.546;7.120;2023-04-23T03:45:02;11.62;89.13
13713;DHT22;6928;50.546;7.120;2023-04-23T03:47:29;11.77;88.84
13713;DHT22;6928;50.546;7.120;2023-04-23T03:49:56;11.57;88.96
13713;DHT22;6928;50.546;7.120;2023-04-23T03:52:23;11.76;89.12
13713;DHT22;6928;50.546;7.120;2023-04-23T03:54:50;11.62;89.76
13713;DHT22;6928;50.546;7.120;2023-04-23T03:57:19;11.80;88.94
13713;DHT22;6928;50.546;7.120;2023-04-23T03:59:45;11.63;89.45
13713;DHT22;6928;50.546;7.120;2023-04-23T04:02:12;11.66;89.36
13713;DHT22;6928;50.546;7.120;2023-04-23T04:04:39;11.63;89.25
13713;DHT22;6928;50.546;7.120;2023-04-23T04:07:07;11.52;89.71
13713;DHT22;6928;50.546;7.120;2023-04-23T04:09:37;11.62;89.57
13713;DHT22;6928;50.546;7.120;2023-04-23T04:12:04;11.81;88.87
13713;DHT22;6928;50.546;7.120;2023-04-23T04:14:33;11.59;89.22
13713;DHT22;6928;50.546;7.120;2023-04-23T04:16:59;11.80;88.88
13713;DHT22;6928;50.546;7.120;2023-04-23T04:19:26;11.52;89.73
13713;DHT22;6928;50.546;7.120;2023-04-23T04:21:53;11.40;90.21
13713;DHT22;6928;50.546;7.120;2023-04-23T04:24:19;11.40;90.19
13713;DHT22;6928;50.546;7.120;2023-04-23T04:26:48;11.47;89.85
13713;DHT22;6928;50.546;7.120;2023-04-23T04:29:17;11.36;90.15
13713;DHT22;6928;50.546;7.120;2023-04-23T04:31:46;11.46;89.94
13713;DHT22;6928;50.546;7.120;2023-04-23T04:34:13;11.47;89.70
13713;DHT22;6928;50.546;7.120;2023-04-23T04:36:40;11.67;89.06
13713;DHT22;6928;50.546;7.120;2023-04-23T04:39:07;11.63;88.90
13713;DHT22;6928;50.546;7.120;2023-04-23T04:41:35;11.50;89.63
13713;DHT22;6928;50.546;7.120;2023-04-23T04:44:02;11.55;89.62
13713;DHT22;6928;50.546;7.120;2023-04-23T04:46:29;11.65;89.01
13713;DHT22;6928;50.546;7.120;2023-04-23T04:48:57;11.65;88.89
13713;DHT22;6928;50.546;7.120;2023-04-23T04:51:24;11.60;88.40
13713;DHT22;6928;50.546;7.120;2023-04-23T04:53:51;11.63;88.09
13713;DHT22;6928;50.546;7.120;2023-04-23T04:56:18;11.81;87.40
13713;DHT22;6928;50.546;7.120;2023-04-23T04:58:46;11.66;87.68
13713;DHT22;6928;50.546;7.120;2023-04-23T05:01:13;11.84;87.31
13713;DHT22;6928;50.546;7.120;2023-04-23T05:03:40;11.66;87.94
13713;DHT22;6928;50.546;7.120;2023-04-23T05:06:08;11.76;88.00
13713;DHT22;6928;50.546;7.120;2023-04-23T05:08:35;11.73;87.77
13713;DHT22;6928;50.546;7.120;2023-04-23T05:11:02;11.77;87.54
13713;DHT22;6928;50.546;7.120;2023-04-23T05:13:29;11.78;87.57
13713;DHT22;6928;50.546;7.120;2023-04-23T05:15:55;11.81;87.22
13713;DHT22;6928;50.546;7.120;2023-04-23T05:18:22;11.84;87.13
13713;DHT22;6928;50.546;7.120;2023-04-23T05:20:49;11.95;86.82
13713;DHT22;6928;50.546;7.120;2023-04-23T05:23:17;11.83;86.76
13713;DHT22;6928;50.546;7.120;2023-04-23T05:25:44;11.76;87.24
13713;DHT22;6928;50.546;7.120;2023-04-23T05:28:10;11.69;87.28
13713;DHT22;6928;50.546;7.120;2023-04-23T05:30:37;11.83;86.80
13713;DHT22;6928;50.546;7.120;2023-04-23T05:33:04;11.87;86.85
13713;DHT22;6928;50.546;7.120;2023-04-23T05:35:30;11.88;86.71
13713;DHT22;6928;50.546;7.120;2023-04-23T05:37:57;11.88;86.92
13713;DHT22;6928;50.546;7.120;2023-04-23T05:40:25;11.88;87.02
13713;DHT22;6928;50.546;7.120;2023-04-23T05:42:52;11.93;87.06
13713;DHT22;6928;50.546;7.120;2023-04-23T05:45:19;11.84;87.12
13713;DHT22;6928;50.546;7.120;2023-04-23T05:47:46;11.99;86.94
13713;DHT22;6928;50.546;7.120;2023-04-23T05:50:12;11.94;86.82
13713;DHT22;6928;50.546;7.120;2023-04-23T05:52:39;12.02;87.03
13713;DHT22;6928;50.546;7.120;2023-04-23T05:55:07;12.02;86.81
13713;DHT22;6928;50.546;7.120;2023-04-23T05:57:36;12.04;86.51
13713;DHT22;6928;50.546;7.120;2023-04-23T06:00:05;12.13;86.39
13713;DHT22;6928;50.546;7.120;2023-04-23T06:02:34;12.15;86.26
13713;DHT22;6928;50.546;7.120;2023-04-23T06:05:01;12.13;86.14
13713;DHT22;6928;50.546;7.120;2023-04-23T06:07:27;12.31;86.19
13713;DHT22;6928;50.546;7.120;2023-04-23T06:09:55;12.38;85.64
13713;DHT22;6928;50.546;7.120;2023-04-23T06:12:21;12.35;85.91
13713;DHT22;6928;50.546;7.120;2023-04-23T06:14:51;12.42;85.62
13713;DHT22;6928;50.546;7.120;2023-04-23T06:17:17;12.45;85.56
13713;DHT22;6928;50.546;7.120;2023-04-23T06:19:44;12.62;82.62
13713;DHT22;6928;50.546;7.120;2023-04-23T06:22:11;12.80;80.22
13713;DHT22;6928;50.546;7.120;2023-04-23T06:24:38;12.79;81.25
13713;DHT22;6928;50.546;7.120;2023-04-23T06:27:04;12.84;81.23
13713;DHT22;6928;50.546;7.120;2023-04-23T06:29:31;12.80;82.09
13713;DHT22;6928;50.546;7.120;2023-04-23T06:32:01;12.73;83.69
13713;DHT22;6928;50.546;7.120;2023-04-23T06:34:29;12.75;82.21
13713;DHT22;6928;50.546;7.120;2023-04-23T06:36:56;12.72;82.84
13713;DHT22;6928;50.546;7.120;2023-04-23T06:39:22;12.79;82.94
13713;DHT22;6928;50.546;7.120;2023-04-23T06:41:49;12.80;81.59
13713;DHT22;6928;50.546;7.120;2023-04-23T06:44:16;12.90;81.22
13713;DHT22;6928;50.546;7.120;2023-04-23T06:46:42;13.07;79.83
13713;DHT22;6928;50.546;7.120;2023-04-23T06:49:10;13.04;80.59
13713;DHT22;6928;50.546;7.120;2023-04-23T06:51:37;13.13;79.74
13713;DHT22;6928;50.546;7.120;2023-04-23T06:54:04;13.17;79.58
13713;DHT22;6928;50.546;7.120;2023-04-23T06:56:31;13.18;79.67
13713;DHT22;6928;50.546;7.120;2023-04-23T06:58:57;13.25;79.71
13713;DHT22;6928;50.546;7.120;2023-04-23T07:01:24;13.32;79.43
13713;DHT22;6928;50.546;7.120;2023-04-23T07:03:51;13.41;78.73
13713;DHT22;6928;50.546;7.120;2023-04-23T07:06:20;13.36;79.54
13713;DHT22;6928;50.546;7.120;2023-04-23T07:08:47;13.46;79.71
13713;DHT22;6928;50.546;7.120;2023-04-23T07:11:14;13.45;78.28
13713;DHT22;6928;50.546;7.120;2023-04-23T07:13:41;13.54;78.39
13713;DHT22;6928;50.546;7.120;2023-04-23T07:16:07;13.54;77.23
13713;DHT22;6928;50.546;7.120;2023-04-23T07:18:34;13.51;77.74
13713;DHT22;6928;50.546;7.120;2023-04-23T07:21:02;13.65;77.56
13713;DHT22;6928;50.546;7.120;2023-04-23T07:23:30;13.83;77.29
13713;DHT22;6928;50.546;7.120;2023-04-23T07:25:56;14.03;76.92
13713;DHT22;6928;50.546;7.120;2023-04-23T07:28:23;13.97;76.62
13713;DHT22;6928;50.546;7.120;2023-04-23T07:30:50;13.99;76.64
13713;DHT22;6928;50.546;7.120;2023-04-23T07:33:16;14.12;76.39
13713;DHT22;6928;50.546;7.120;2023-04-23T07:35:43;14.09;75.59
13713;DHT22;6928;50.546;7.120;2023-04-23T07:38:10;14.10;76.07
13713;DHT22;6928;50.546;7.120;2023-04-23T07:40:38;14.28;74.95
13713;DHT22;6928;50.546;7.120;2023-04-23T07:43:05;14.37;74.26
13713;DHT22;6928;50.546;7.120;2023-04-23T07:45:31;14.41;73.89
13713;DHT22;6928;50.546;7.120;2023-04-23T07:47:58;14.51;73.52
13713;DHT22;6928;50.546;7.120;2023-04-23T07:50:26;14.57;73.58
13713;DHT22;6928;50.546;7.120;2023-04-23T07:52:53;14.51;74.03
13713;DHT22;6928;50.546;7.120;2023-04-23T07:55:20;14.57;74.02
13713;DHT22;6928;50.546;7.120;2023-04-23T07:57:48;14.81;73.20
13713;DHT22;6928;50.546;7.120;2023-04-23T08:00:16;14.99;72.32
13713;DHT22;6928;50.546;7.120;2023-04-23T08:02:42;15.13;72.34
13713;DHT22;6928;50.546;7.120;2023-04-23T08:05:09;15.04;72.22
13713;DHT22;6928;50.546;7.120;2023-04-23T08:07:36;14.95;72.27
13713;DHT22;6928;50.546;7.120;2023-04-23T08:10:03;14.81;71.39
13713;DHT22;6928;50.546;7.120;2023-04-23T08:12:31;14.93;71.11
13713;DHT22;6928;50.546;7.120;2023-04-23T08:15:01;15.00;71.25
13713;DHT22;6928;50.546;7.120;2023-04-23T08:17:28;14.98;70.58
13713;DHT22;6928;50.546;7.120;2023-04-23T08:19:55;14.89;70.76
13713;DHT22;6928;50.546;7.120;2023-04-23T08:22:22;14.89;70.39
13713;DHT22;6928;50.546;7.120;2023-04-23T08:24:48;14.88;70.00
13713;DHT22;6928;50.546;7.120;2023-04-23T08:27:15;14.98;69.85
13713;DHT22;6928;50.546;7.120;2023-04-23T08:29:42;15.02;69.86
13713;DHT22;6928;50.546;7.120;2023-04-23T08:32:10;15.19;69.81
13713;DHT22;6928;50.546;7.120;2023-04-23T08:34:37;15.41;69.41
13713;DHT22;6928;50.546;7.120;2023-04-23T08:37:04;15.60;68.97
13713;DHT22;6928;50.546;7.120;2023-04-23T08:39:33;15.91;67.83
13713;DHT22;6928;50.546;7.120;2023-04-23T08:42:10;16.01;67.41
13713;DHT22;6928;50.546;7.120;2023-04-23T08:44:40;16.04;67.05
13713;DHT22;6928;50.546;7.120;2023-04-23T08:47:11;16.19;67.77
13713;DHT22;6928;50.546;7.120;2023-04-23T08:49:41;16.22;67.51
13713;DHT22;6928;50.546;7.120;2023-04-23T08:52:15;16.47;65.90
13713;DHT22;6928;50.546;7.120;2023-04-23T08:54:49;16.34;66.69
13713;DHT22;6928;50.546;7.120;2023-04-23T08:57:18;16.39;65.72
13713;DHT22;6928;50.546;7.120;2023-04-23T08:59:45;16.56;66.12
13713;DHT22;6928;50.546;7.120;2023-04-23T09:02:16;16.26;64.92
13713;DHT22;6928;50.546;7.120;2023-04-23T09:04:44;16.39;64.15
13713;DHT22;6928;50.546;7.120;2023-04-23T09:07:11;16.49;64.02
13713;DHT22;6928;50.546;7.120;2023-04-23T09:09:40;16.39;63.19
13713;DHT22;6928;50.546;7.120;2023-04-23T09:12:07;16.59;61.80
13713;DHT22;6928;50.546;7.120;2023-04-23T09:14:35;16.57;62.14
13713;DHT22;6928;50.546;7.120;2023-04-23T09:17:02;16.43;62.50
13713;DHT22;6928;50.546;7.120;2023-04-23T09:19:31;16.43;62.71
13713;DHT22;6928;50.546;7.120;2023-04-23T09:21:59;16.34;62.03
13713;DHT22;6928;50.546;7.120;2023-04-23T09:24:26;16.37;62.50
13713;DHT22;6928;50.546;7.120;2023-04-23T09:26:53;16.37;62.42
13713;DHT22;6928;50.546;7.120;2023-04-23T09:29:22;16.65;62.09
13713;DHT22;6928;50.546;7.120;2023-04-23T09:31:52;16.70;61.97
13713;DHT22;6928;50.546;7.120;2023-04-23T09:34:21;17.07;62.17
13713;DHT22;6928;50.546;7.120;2023-04-23T09:36:51;16.70;61.64
13713;DHT22;6928;50.546;7.120;2023-04-23T09:39:21;16.56;62.58
13713;DHT22;6928;50.546;7.120;2023-04-23T09:41:50;16.43;63.31
13713;DHT22;6928;50.546;7.120;2023-04-23T09:44:18;16.44;63.28
13713;DHT22;6928;50.546;7.120;2023-04-23T09:46:47;16.33;63.35
13713;DHT22;6928;50.546;7.120;2023-04-23T09:49:16;16.37;63.97
13713;DHT22;6928;50.546;7.120;2023-04-23T09:51:45;16.43;63.85
13713;DHT22;6928;50.546;7.120;2023-04-23T09:54:16;16.33;63.65
13713;DHT22;6928;50.546;7.120;2023-04-23T09:56:44;16.42;63.01
13713;DHT22;6928;50.546;7.120;2023-04-23T09:59:22;16.56;62.38
13713;DHT22;6928;50.546;7.120;2023-04-23T10:01:50;16.63;61.71
13713;DHT22;6928;50.546;7.120;2023-04-23T10:04:17;16.94;62.00
13713;DHT22;6928;50.546;7.120;2023-04-23T10:06:45;16.78;61.44
13713;DHT22;6928;50.546;7.120;2023-04-23T10:09:13;16.84;61.64
13713;DHT22;6928;50.546;7.120;2023-04-23T10:11:40;17.23;59.64
13713;DHT22;6928;50.546;7.120;2023-04-23T10:14:08;17.50;59.28
13713;DHT22;6928;50.546;7.120;2023-04-23T10:16:39;17.21;57.56
13713;DHT22;6928;50.546;7.120;2023-04-23T10:19:08;17.14;57.61
13713;DHT22;6928;50.546;7.120;2023-04-23T10:21:37;16.88;58.57
13713;DHT22;6928;50.546;7.120;2023-04-23T10:24:05;16.81;58.75
13713;DHT22;6928;50.546;7.120;2023-04-23T10:26:34;16.90;59.75
13713;DHT22;6928;50.546;7.120;2023-04-23T10:29:04;16.78;58.40
13713;DHT22;6928;50.546;7.120;2023-04-23T10:31:34;16.72;59.19
13713;DHT22;6928;50.546;7.120;2023-04-23T10:34:03;16.65;59.14
13713;DHT22;6928;50.546;7.120;2023-04-23T10:36:32;16.70;59.03
13713;DHT22;6928;50.546;7.120;2023-04-23T10:38:59;16.61;58.28
13713;DHT22;6928;50.546;7.120;2023-04-23T10:41:36;16.57;58.36
13713;DHT22;6928;50.546;7.120;2023-04-23T10:44:04;16.57;59.43
13713;DHT22;6928;50.546;7.120;2023-04-23T10:46:32;16.51;58.75
13713;DHT22;6928;50.546;7.120;2023-04-23T10:49:12;16.54;58.33
13713;DHT22;6928;50.546;7.120;2023-04-23T10:51:41;16.65;58.66
13713;DHT22;6928;50.546;7.120;2023-04-23T10:54:08;16.49;58.38
13713;DHT22;6928;50.546;7.120;2023-04-23T10:56:42;16.51;58.50
13713;DHT22;6928;50.546;7.120;2023-04-23T10:59:17;16.51;57.62
13713;DHT22;6928;50.546;7.120;2023-04-23T11:01:45;16.65;58.12
13713;DHT22;6928;50.546;7.120;2023-04-23T11:04:22;16.77;58.29
13713;DHT22;6928;50.546;7.120;2023-04-23T11:06:57;16.81;58.20
13713;DHT22;6928;50.546;7.120;2023-04-23T11:09:35;16.78;58.28
13713;DHT22;6928;50.546;7.120;2023-04-23T11:12:06;16.83;58.80
13713;DHT22;6928;50.546;7.120;2023-04-23T11:14:36;17.02;58.73
13713;DHT22;6928;50.546;7.120;2023-04-23T11:17:04;17.12;57.94
13713;DHT22;6928;50.546;7.120;2023-04-23T11:19:35;16.94;57.51
13713;DHT22;6928;50.546;7.120;2023-04-23T11:22:04;16.81;57.97
13713;DHT22;6928;50.546;7.120;2023-04-23T11:24:34;16.98;57.66
13713;DHT22;6928;50.546;7.120;2023-04-23T11:27:08;16.85;58.03
13713;DHT22;6928;50.546;7.120;2023-04-23T11:29:37;16.92;58.16
13713;DHT22;6928;50.546;7.120;2023-04-23T11:32:04;16.91;58.02
13713;DHT22;6928;50.546;7.120;2023-04-23T11:34:35;16.98;57.27
13713;DHT22;6928;50.546;7.120;2023-04-23T11:37:02;16.91;56.87
13713;DHT22;6928;50.546;7.120;2023-04-23T11:39:29;17.05;56.32
13713;DHT22;6928;50.546;7.120;2023-04-23T11:41:56;17.02;56.91
13713;DHT22;6928;50.546;7.120;2023-04-23T11:44:25;16.98;56.42
13713;DHT22;6928;50.546;7.120;2023-04-23T11:46:52;17.23;54.82
13713;DHT22;6928;50.546;7.120;2023-04-23T11:49:19;17.50;55.11
13713;DHT22;6928;50.546;7.120;2023-04-23T11:51:47;17.46;55.24
13713;DHT22;6928;50.546;7.120;2023-04-23T11:54:14;17.22;55.72
13713;DHT22;6928;50.546;7.120;2023-04-23T11:56:41;16.97;56.02
13713;DHT22;6928;50.546;7.120;2023-04-23T11:59:08;16.91;56.32
13713;DHT22;6928;50.546;7.120;2023-04-23T12:01:49;17.16;56.69
13713;DHT22;6928;50.546;7.120;2023-04-23T12:04:19;17.38;55.70
13713;DHT22;6928;50.546;7.120;2023-04-23T12:06:48;17.80;55.19
13713;DHT22;6928;50.546;7.120;2023-04-23T12:09:17;17.81;55.60
13713;DHT22;6928;50.546;7.120;2023-04-23T12:11:46;17.96;54.20
13713;DHT22;6928;50.546;7.120;2023-04-23T12:14:16;17.80;53.76
13713;DHT22;6928;50.546;7.120;2023-04-23T12:16:46;17.71;53.94
13713;DHT22;6928;50.546;7.120;2023-04-23T12:19:18;17.80;54.17
13713;DHT22;6928;50.546;7.120;2023-04-23T12:21:50;17.70;53.18
13713;DHT22;6928;50.546;7.120;2023-04-23T12:24:21;18.04;53.22
13713;DHT22;6928;50.546;7.120;2023-04-23T12:26:50;18.36;52.33
13713;DHT22;6928;50.546;7.120;2023-04-23T12:29:19;18.53;52.01
13713;DHT22;6928;50.546;7.120;2023-04-23T12:31:48;18.39;51.53
13713;DHT22;6928;50.546;7.120;2023-04-23T12:34:17;18.29;50.58
13713;DHT22;6928;50.546;7.120;2023-04-23T12:36:46;18.05;51.06
13713;DHT22;6928;50.546;7.120;2023-04-23T12:39:23;18.36;51.42
13713;DHT22;6928;50.546;7.120;2023-04-23T12:41:52;18.18;51.33
13713;DHT22;6928;50.546;7.120;2023-04-23T12:44:20;18.31;51.30
13713;DHT22;6928;50.546;7.120;2023-04-23T12:46:56;18.31;52.56
13713;DHT22;6928;50.546;7.120;2023-04-23T12:49:24;18.05;52.56
13713;DHT22;6928;50.546;7.120;2023-04-23T12:51:51;17.80;52.90
13713;DHT22;6928;50.546;7.120;2023-04-23T12:54:23;17.81;53.76
13713;DHT22;6928;50.546;7.120;2023-04-23T12:56:49;17.74;54.05
13713;DHT22;6928;50.546;7.120;2023-04-23T12:59:16;17.77;54.90
13713;DHT22;6928;50.546;7.120;2023-04-23T13:01:43;17.69;55.06
13713;DHT22;6928;50.546;7.120;2023-04-23T13:04:11;17.84;55.50
13713;DHT22;6928;50.546;7.120;2023-04-23T13:06:38;17.53;55.65
13713;DHT22;6928;50.546;7.120;2023-04-23T13:09:05;17.35;55.74
13713;DHT22;6928;50.546;7.120;2023-04-23T13:11:32;17.30;56.37
13713;DHT22;6928;50.546;7.120;2023-04-23T13:13:59;17.29;56.38
13713;DHT22;6928;50.546;7.120;2023-04-23T13:16:26;17.38;56.60
13713;DHT22;6928;50.546;7.120;2023-04-23T13:18:53;17.39;56.01
13713;DHT22;6928;50.546;7.120;2023-04-23T13:21:22;17.33;55.64
13713;DHT22;6928;50.546;7.120;2023-04-23T13:23:49;17.36;55.61
13713;DHT22;6928;50.546;7.120;2023-04-23T13:26:16;17.36;56.06
13713;DHT22;6928;50.546;7.120;2023-04-23T13:28:43;17.36;56.61
13713;DHT22;6928;50.546;7.120;2023-04-23T13:31:10;17.35;56.92
13713;DHT22;6928;50.546;7.120;2023-04-23T13:33:38;17.38;56.83
13713;DHT22;6928;50.546;7.120;2023-04-23T13:36:06;17.23;56.28
13713;DHT22;6928;50.546;7.120;2023-04-23T13:38:34;17.21;55.83
13713;DHT22;6928;50.546;7.120;2023-04-23T13:41:01;17.14;56.29
13713;DHT22;6928;50.546;7.120;2023-04-23T13:43:28;17.19;56.86
13713;DHT22;6928;50.546;7.120;2023-04-23T13:45:56;17.19;56.66
13713;DHT22;6928;50.546;7.120;2023-04-23T13:48:25;17.25;56.99
13713;DHT22;6928;50.546;7.120;2023-04-23T13:50:56;17.23;56.76
13713;DHT22;6928;50.546;7.120;2023-04-23T13:53:23;17.23;55.26
13713;DHT22;6928;50.546;7.120;2023-04-23T13:55:52;17.36;55.20
13713;DHT22;6928;50.546;7.120;2023-04-23T13:58:18;17.32;54.82
13713;DHT22;6928;50.546;7.120;2023-04-23T14:00:45;17.33;54.23
13713;DHT22;6928;50.546;7.120;2023-04-23T14:03:12;17.39;55.37
13713;DHT22;6928;50.546;7.120;2023-04-23T14:05:39;17.28;55.29
13713;DHT22;6928;50.546;7.120;2023-04-23T14:08:06;17.39;55.23
13713;DHT22;6928;50.546;7.120;2023-04-23T14:10:33;17.25;54.96
13713;DHT22;6928;50.546;7.120;2023-04-23T14:13:02;17.33;55.27
13713;DHT22;6928;50.546;7.120;2023-04-23T14:15:29;17.43;55.20
13713;DHT22;6928;50.546;7.120;2023-04-23T14:17:55;17.40;54.87
13713;DHT22;6928;50.546;7.120;2023-04-23T14:20:22;17.52;53.82
13713;DHT22;6928;50.546;7.120;2023-04-23T14:22:55;17.49;53.41
13713;DHT22;6928;50.546;7.120;2023-04-23T14:25:29;17.47;53.17
13713;DHT22;6928;50.546;7.120;2023-04-23T14:28:20;17.47;53.82
13713;DHT22;6928;50.546;7.120;2023-04-23T14:30:48;17.52;54.03
13713;DHT22;6928;50.546;7.120;2023-04-23T14:33:15;17.56;54.09
13713;DHT22;6928;50.546;7.120;2023-04-23T14:35:42;17.50;53.46
13713;DHT22;6928;50.546;7.120;2023-04-23T14:38:08;17.50;54.11
13713;DHT22;6928;50.546;7.120;2023-04-23T14:40:35;17.54;53.51
13713;DHT22;6928;50.546;7.120;2023-04-23T14:43:03;17.39;53.21
13713;DHT22;6928;50.546;7.120;2023-04-23T14:45:31;17.56;53.53
13713;DHT22;6928;50.546;7.120;2023-04-23T14:47:58;17.50;53.01
13713;DHT22;6928;50.546;7.120;2023-04-23T14:50:25;17.50;53.99
13713;DHT22;6928;50.546;7.120;2023-04-23T14:52:53;17.53;53.67
13713;DHT22;6928;50.546;7.120;2023-04-23T14:55:21;17.49;54.11
13713;DHT22;6928;50.546;7.120;2023-04-23T14:57:47;17.52;53.68
13713;DHT22;6928;50.546;7.120;2023-04-23T15:00:16;17.53;53.29
13713;DHT22;6928;50.546;7.120;2023-04-23T15:02:43;17.57;54.05
13713;DHT22;6928;50.546;7.120;2023-04-23T15:05:11;17.60;54.50
13713;DHT22;6928;50.546;7.120;2023-04-23T15:07:40;17.73;54.17
13713;DHT22;6928;50.546;7.120;2023-04-23T15:10:08;17.60;53.43
13713;DHT22;6928;50.546;7.120;2023-04-23T15:12:42;17.59;53.63
13713;DHT22;6928;50.546;7.120;2023-04-23T15:15:21;17.59;53.95
13713;DHT22;6928;50.546;7.120;2023-04-23T15:17:52;17.52;54.55
13713;DHT22;6928;50.546;7.120;2023-04-23T15:20:19;17.54;56.46
13713;DHT22;6928;50.546;7.120;2023-04-23T15:22:46;17.42;55.15
13713;DHT22;6928;50.546;7.120;2023-04-23T15:25:13;17.42;55.96
13713;DHT22;6928;50.546;7.120;2023-04-23T15:27:40;17.23;55.67
13713;DHT22;6928;50.546;7.120;2023-04-23T15:30:09;17.25;55.71
13713;DHT22;6928;50.546;7.120;2023-04-23T15:32:37;17.15;55.87
13713;DHT22;6928;50.546;7.120;2023-04-23T15:35:05;17.14;56.71
13713;DHT22;6928;50.546;7.120;2023-04-23T15:37:31;17.08;56.71
13713;DHT22;6928;50.546;7.120;2023-04-23T15:39:58;17.01;57.48
13713;DHT22;6928;50.546;7.120;2023-04-23T15:42:25;17.00;57.50
13713;DHT22;6928;50.546;7.120;2023-04-23T15:44:52;16.97;58.12
13713;DHT22;6928;50.546;7.120;2023-04-23T15:47:20;16.84;60.12
13713;DHT22;6928;50.546;7.120;2023-04-23T15:49:49;16.64;59.39